Time,TemperatureF,DewpointF,PressureIn,WindDirection,WindDirectionDegrees,WindSpeedMPH,WindSpeedGustMPH,Humidity,HourlyPrecipIn,Conditions,Clouds,dailyrainin,SolarRadiationWatts/m^2,SoftwareType,DateUTC
2013-03-30 00:01:00,30.0,29.0,-100.00,SSE,157,0.0,3.0,95,0.00,,,0.03,0.000000,,2013-03-30 04:01:00,
2013-03-30 00:23:00,30.0,29.0,-100.00,SSE,157,0.0,3.0,95,0.00,,,0.03,0.000000,,2013-03-30 04:23:00,
2013-03-30 00:33:00,30.0,29.0,-100.00,SSE,157,0.0,3.0,95,0.00,,,0.03,0.000000,,2013-03-30 04:33:00,
2013-03-30 00:43:00,30.0,29.0,-100.00,SSE,157,0.0,3.0,95,0.00,,,0.03,0.000000,,2013-03-30 04:43:00,
2013-03-30 00:53:00,30.0,29.0,-100.00,SSE,157,0.0,3.0,95,0.00,,,0.03,0.000000,,2013-03-30 04:53:00,
2013-03-30 01:01:00,29.0,27.0,-100.00,SSW,204,0.0,1.0,94,0.00,,,0.03,0.000000,,2013-03-30 05:01:00,
2013-03-30 01:32:00,29.0,27.0,-100.00,SSW,204,0.0,1.0,94,0.00,,,0.03,0.000000,,2013-03-30 05:32:00,
2013-03-30 01:42:00,29.0,27.0,-100.00,SSW,204,0.0,1.0,94,0.00,,,0.03,0.000000,,2013-03-30 05:42:00,
2013-03-30 01:52:00,29.0,27.0,-100.00,SSW,204,0.0,1.0,94,0.00,,,0.03,0.000000,,2013-03-30 05:52:00,
2013-03-30 02:01:00,28.0,27.0,-100.00,SE,138,0.0,0.0,95,0.00,,,0.01,0.000000,,2013-03-30 06:01:00,
2013-03-30 02:32:00,28.0,27.0,-100.00,SE,138,0.0,0.0,95,0.00,,,0.01,0.000000,,2013-03-30 06:32:00,
2013-03-30 02:42:00,28.0,27.0,-100.00,SE,138,0.0,0.0,95,0.00,,,0.01,0.000000,,2013-03-30 06:42:00,
2013-03-30 02:52:00,28.0,27.0,-100.00,SE,138,0.0,0.0,95,0.00,,,0.01,0.000000,,2013-03-30 06:52:00,
2013-03-30 03:01:00,27.0,26.0,-100.00,SE,141,0.0,0.0,95,0.00,,,0.01,0.000000,,2013-03-30 07:01:00,
2013-03-30 03:32:00,27.0,26.0,-100.00,SE,141,0.0,0.0,95,0.00,,,0.01,0.000000,,2013-03-30 07:32:00,
2013-03-30 03:42:00,27.0,26.0,-100.00,SE,141,0.0,0.0,95,0.00,,,0.01,0.000000,,2013-03-30 07:42:00,
2013-03-30 03:52:00,27.0,26.0,-100.00,SE,141,0.0,0.0,95,0.00,,,0.01,0.000000,,2013-03-30 07:52:00,
2013-03-30 04:01:00,27.0,26.0,-100.00,SSE,163,0.0,0.0,95,0.00,,,0.00,0.000000,,2013-03-30 08:01:00,
2013-03-30 04:22:00,27.0,26.0,-100.00,SSE,163,0.0,0.0,95,0.00,,,0.00,0.000000,,2013-03-30 08:22:00,
2013-03-30 04:32:00,27.0,26.0,-100.00,SSE,163,0.0,0.0,95,0.00,,,0.00,0.000000,,2013-03-30 08:32:00,
2013-03-30 04:42:00,27.0,26.0,-100.00,SSE,163,0.0,0.0,95,0.00,,,0.00,0.000000,,2013-03-30 08:42:00,
2013-03-30 04:53:00,27.0,26.0,-100.00,SSE,163,0.0,0.0,95,0.00,,,0.00,0.000000,,2013-03-30 08:53:00,
2013-03-30 05:01:00,26.0,25.0,-100.00,ESE,118,0.0,0.0,95,0.00,,,0.00,0.000000,,2013-03-30 09:01:00,
2013-03-30 05:33:00,26.0,25.0,-100.00,ESE,118,0.0,0.0,95,0.00,,,0.00,0.000000,,2013-03-30 09:33:00,
2013-03-30 05:43:00,26.0,25.0,-100.00,ESE,118,0.0,0.0,95,0.00,,,0.00,0.000000,,2013-03-30 09:43:00,
2013-03-30 05:54:00,26.0,25.0,-100.00,ESE,118,0.0,0.0,95,0.00,,,0.00,0.000000,,2013-03-30 09:54:00,
2013-03-30 06:01:00,25.0,24.0,-100.00,ESE,119,0.0,0.0,95,0.00,,,0.00,0.000000,,2013-03-30 10:01:00,
2013-03-30 06:23:00,25.0,24.0,-100.00,ESE,119,0.0,0.0,95,0.00,,,0.00,0.000000,,2013-03-30 10:23:00,
2013-03-30 06:33:00,25.0,24.0,-100.00,ESE,119,0.0,0.0,95,0.00,,,0.00,0.000000,,2013-03-30 10:33:00,
2013-03-30 06:42:00,25.0,24.0,-100.00,ESE,119,0.0,0.0,95,0.00,,,0.00,0.000000,,2013-03-30 10:42:00,
2013-03-30 06:53:00,25.0,24.0,-100.00,ESE,119,0.0,0.0,95,0.00,,,0.00,0.000000,,2013-03-30 10:53:00,
2013-03-30 07:01:00,24.0,23.0,-100.00,SE,126,0.0,0.0,94,0.00,,,0.00,2.000000,,2013-03-30 11:01:00,
2013-03-30 07:33:00,24.0,23.0,-100.00,SE,126,0.0,0.0,94,0.00,,,0.00,2.000000,,2013-03-30 11:33:00,
2013-03-30 07:43:00,24.0,23.0,-100.00,SE,126,0.0,0.0,94,0.00,,,0.00,2.000000,,2013-03-30 11:43:00,
2013-03-30 07:53:00,24.0,23.0,-100.00,SE,126,0.0,0.0,94,0.00,,,0.00,2.000000,,2013-03-30 11:53:00,
2013-03-30 08:01:00,27.0,26.0,-100.00,SSE,161,0.0,1.0,94,0.00,,,0.00,23.000000,,2013-03-30 12:01:00,
2013-03-30 08:33:00,27.0,26.0,-100.00,SSE,161,0.0,1.0,94,0.00,,,0.00,23.000000,,2013-03-30 12:33:00,
2013-03-30 08:43:00,27.0,26.0,-100.00,SSE,161,0.0,1.0,94,0.00,,,0.00,23.000000,,2013-03-30 12:43:00,
2013-03-30 08:53:00,27.0,26.0,-100.00,SSE,161,0.0,1.0,94,0.00,,,0.00,23.000000,,2013-03-30 12:53:00,
2013-03-30 09:01:00,35.0,31.0,-100.00,South,169,1.0,4.0,84,0.00,,,0.00,188.000000,,2013-03-30 13:01:00,
2013-03-30 09:32:00,35.0,31.0,-100.00,South,169,1.0,4.0,84,0.00,,,0.00,188.000000,,2013-03-30 13:32:00,
2013-03-30 09:43:00,35.0,31.0,-100.00,South,169,1.0,4.0,84,0.00,,,0.00,188.000000,,2013-03-30 13:43:00,
2013-03-30 09:53:00,35.0,31.0,-100.00,South,169,1.0,4.0,84,0.00,,,0.00,188.000000,,2013-03-30 13:53:00,
2013-03-30 10:01:00,42.0,22.0,-100.00,SW,230,1.0,5.0,45,0.00,,,0.00,485.000000,,2013-03-30 14:01:00,
2013-03-30 10:23:00,42.0,22.0,-100.00,SW,230,1.0,5.0,45,0.00,,,0.00,485.000000,,2013-03-30 14:23:00,
2013-03-30 10:33:00,42.0,22.0,-100.00,SW,230,1.0,5.0,45,0.00,,,0.00,485.000000,,2013-03-30 14:33:00,
2013-03-30 10:43:00,42.0,22.0,-100.00,SW,230,1.0,5.0,45,0.00,,,0.00,485.000000,,2013-03-30 14:43:00,
2013-03-30 10:53:00,42.0,22.0,-100.00,SW,230,1.0,5.0,45,0.00,,,0.00,485.000000,,2013-03-30 14:53:00,
2013-03-30 11:01:00,48.0,17.0,-100.00,WNW,298,2.0,7.0,29,0.00,,,0.00,675.000000,,2013-03-30 15:01:00,
2013-03-30 11:34:00,48.0,17.0,-100.00,WNW,298,2.0,7.0,29,0.00,,,0.00,675.000000,,2013-03-30 15:34:00,
2013-03-30 11:43:00,48.0,17.0,-100.00,WNW,298,2.0,7.0,29,0.00,,,0.00,675.000000,,2013-03-30 15:43:00,
2013-03-30 11:53:00,48.0,17.0,-100.00,WNW,298,2.0,7.0,29,0.00,,,0.00,675.000000,,2013-03-30 15:53:00,
2013-03-30 12:01:00,50.0,13.0,-100.00,NNW,346,2.0,8.0,22,0.00,,,0.00,809.000000,,2013-03-30 16:01:00,
2013-03-30 12:33:00,50.0,13.0,-100.00,NNW,346,2.0,8.0,22,0.00,,,0.00,809.000000,,2013-03-30 16:33:00,
2013-03-30 12:43:00,50.0,13.0,-100.00,NNW,346,2.0,8.0,22,0.00,,,0.00,809.000000,,2013-03-30 16:43:00,
2013-03-30 12:53:00,50.0,13.0,-100.00,NNW,346,2.0,8.0,22,0.00,,,0.00,809.000000,,2013-03-30 16:53:00,
2013-03-30 13:01:00,51.0,15.0,-100.00,WSW,251,3.0,11.0,23,0.00,,,0.00,878.000000,,2013-03-30 17:01:00,
2013-03-30 13:33:00,51.0,15.0,-100.00,WSW,251,3.0,11.0,23,0.00,,,0.00,878.000000,,2013-03-30 17:33:00,
2013-03-30 13:43:00,51.0,15.0,-100.00,WSW,251,3.0,11.0,23,0.00,,,0.00,878.000000,,2013-03-30 17:43:00,
2013-03-30 13:53:00,51.0,15.0,-100.00,WSW,251,3.0,11.0,23,0.00,,,0.00,878.000000,,2013-03-30 17:53:00,
2013-03-30 14:01:00,52.0,11.0,-100.00,WSW,255,2.0,7.0,19,0.00,,,0.00,877.000000,,2013-03-30 18:01:00,
2013-03-30 14:33:00,52.0,11.0,-100.00,WSW,255,2.0,7.0,19,0.00,,,0.00,877.000000,,2013-03-30 18:33:00,
2013-03-30 14:43:00,52.0,11.0,-100.00,WSW,255,2.0,7.0,19,0.00,,,0.00,877.000000,,2013-03-30 18:43:00,
2013-03-30 14:53:00,52.0,11.0,-100.00,WSW,255,2.0,7.0,19,0.00,,,0.00,877.000000,,2013-03-30 18:53:00,
2013-03-30 15:01:00,53.0,12.0,-100.00,West,275,2.0,9.0,19,0.00,,,0.00,803.000000,,2013-03-30 19:01:00,
2013-03-30 15:32:00,53.0,12.0,-100.00,West,275,2.0,9.0,19,0.00,,,0.00,803.000000,,2013-03-30 19:32:00,
2013-03-30 15:42:00,53.0,12.0,-100.00,West,275,2.0,9.0,19,0.00,,,0.00,803.000000,,2013-03-30 19:42:00,
2013-03-30 15:53:00,53.0,12.0,-100.00,West,275,2.0,9.0,19,0.00,,,0.00,803.000000,,2013-03-30 19:53:00,
2013-03-30 16:01:00,53.0,12.0,-100.00,SW,228,2.0,10.0,19,0.00,,,0.00,668.000000,,2013-03-30 20:01:00,
2013-03-30 16:33:00,53.0,12.0,-100.00,SW,228,2.0,10.0,19,0.00,,,0.00,668.000000,,2013-03-30 20:33:00,
2013-03-30 16:43:00,53.0,12.0,-100.00,SW,228,2.0,10.0,19,0.00,,,0.00,668.000000,,2013-03-30 20:43:00,
2013-03-30 16:53:00,53.0,12.0,-100.00,SW,228,2.0,10.0,19,0.00,,,0.00,668.000000,,2013-03-30 20:53:00,
2013-03-30 17:01:00,54.0,15.0,-100.00,WNW,294,1.0,10.0,21,0.00,,,0.00,487.000000,,2013-03-30 21:01:00,
2013-03-30 17:34:00,54.0,15.0,-100.00,WNW,294,1.0,10.0,21,0.00,,,0.00,487.000000,,2013-03-30 21:34:00,
2013-03-30 17:43:00,54.0,15.0,-100.00,WNW,294,1.0,10.0,21,0.00,,,0.00,487.000000,,2013-03-30 21:43:00,
2013-03-30 17:53:00,54.0,15.0,-100.00,WNW,294,1.0,10.0,21,0.00,,,0.00,487.000000,,2013-03-30 21:53:00,
2013-03-30 18:01:00,51.0,15.0,-100.00,WSW,252,1.0,8.0,23,0.00,,,0.00,268.000000,,2013-03-30 22:01:00,
2013-03-30 18:33:00,51.0,15.0,-100.00,WSW,252,1.0,8.0,23,0.00,,,0.00,268.000000,,2013-03-30 22:33:00,
2013-03-30 18:44:00,51.0,15.0,-100.00,WSW,252,1.0,8.0,23,0.00,,,0.00,268.000000,,2013-03-30 22:44:00,
2013-03-30 18:54:00,51.0,15.0,-100.00,WSW,252,1.0,8.0,23,0.00,,,0.00,268.000000,,2013-03-30 22:54:00,
2013-03-30 19:01:00,45.0,14.0,-100.00,NW,306,0.0,7.0,28,0.00,,,0.00,36.000000,,2013-03-30 23:01:00,
2013-03-30 19:22:00,45.0,14.0,-100.00,NW,306,0.0,7.0,28,0.00,,,0.00,36.000000,,2013-03-30 23:22:00,
2013-03-30 19:33:00,45.0,14.0,-100.00,NW,306,0.0,7.0,28,0.00,,,0.00,36.000000,,2013-03-30 23:33:00,
2013-03-30 19:43:00,45.0,14.0,-100.00,NW,306,0.0,7.0,28,0.00,,,0.00,36.000000,,2013-03-30 23:43:00,
2013-03-30 19:53:00,45.0,14.0,-100.00,NW,306,0.0,7.0,28,0.00,,,0.00,36.000000,,2013-03-30 23:53:00,
2013-03-30 20:01:00,36.0,16.0,-100.00,WSW,238,0.0,0.0,43,0.00,,,0.00,5.000000,,2013-03-31 00:01:00,
2013-03-30 20:33:00,36.0,16.0,-100.00,WSW,238,0.0,0.0,43,0.00,,,0.00,5.000000,,2013-03-31 00:33:00,
2013-03-30 20:43:00,36.0,16.0,-100.00,WSW,238,0.0,0.0,43,0.00,,,0.00,5.000000,,2013-03-31 00:43:00,
2013-03-30 20:53:00,36.0,16.0,-100.00,WSW,238,0.0,0.0,43,0.00,,,0.00,5.000000,,2013-03-31 00:53:00,
2013-03-30 21:01:00,33.0,18.0,-100.00,SE,141,0.0,0.0,54,0.00,,,0.00,0.000000,,2013-03-31 01:01:00,
2013-03-30 21:22:00,33.0,18.0,-100.00,SE,141,0.0,0.0,54,0.00,,,0.00,0.000000,,2013-03-31 01:22:00,
2013-03-30 21:32:00,33.0,18.0,-100.00,SE,141,0.0,0.0,54,0.00,,,0.00,0.000000,,2013-03-31 01:32:00,
2013-03-30 21:43:00,33.0,18.0,-100.00,SE,141,0.0,0.0,54,0.00,,,0.00,0.000000,,2013-03-31 01:43:00,
2013-03-30 21:53:00,33.0,18.0,-100.00,SE,141,0.0,0.0,54,0.00,,,0.00,0.000000,,2013-03-31 01:53:00,
2013-03-30 22:01:00,31.0,18.0,-100.00,ESE,118,0.0,1.0,58,0.00,,,0.00,0.000000,,2013-03-31 02:01:00,
2013-03-30 22:22:00,31.0,18.0,-100.00,ESE,118,0.0,1.0,58,0.00,,,0.00,0.000000,,2013-03-31 02:22:00,
2013-03-30 22:33:00,31.0,18.0,-100.00,ESE,118,0.0,1.0,58,0.00,,,0.00,0.000000,,2013-03-31 02:33:00,
2013-03-30 22:43:00,31.0,18.0,-100.00,ESE,118,0.0,1.0,58,0.00,,,0.00,0.000000,,2013-03-31 02:43:00,
2013-03-30 22:53:00,31.0,18.0,-100.00,ESE,118,0.0,1.0,58,0.00,,,0.00,0.000000,,2013-03-31 02:53:00,
2013-03-30 23:01:00,30.0,-99.9,-100.00,ESE,117,0.0,1.0,66,0.00,,,0.00,0.000000,,2013-03-31 03:01:00,
2013-03-30 23:33:00,30.0,20.0,-100.00,ESE,117,0.0,1.0,66,0.00,,,0.00,0.000000,,2013-03-31 03:33:00,
2013-03-30 23:44:00,30.0,20.0,-100.00,ESE,117,0.0,1.0,66,0.00,,,0.00,0.000000,,2013-03-31 03:44:00,
2013-03-30 23:54:00,30.0,20.0,-100.00,ESE,117,0.0,1.0,66,0.00,,,0.00,0.000000,,2013-03-31 03:54:00,